sensor_id;sensor_type;location;lat;lon;timestamp;P1;durP1;ratioP1;P2;durP2;ratioP2
20034;SDS011;10178;48.034;9.800;2023-05-14T00:01:17;5.43;;;4.90;;
20034;SDS011;10178;48.034;9.800;2023-05-14T00:03:42;5.05;;;4.47;;
20034;SDS011;10178;48.034;9.800;2023-05-14T00:06:08;5.20;;;4.63;;
20034;SDS011;10178;48.034;9.800;2023-05-14T00:08:34;5.60;;;4.70;;
20034;SDS011;10178;48.034;9.800;2023-05-14T00:11:00;5.03;;;4.53;;
20034;SDS011;10178;48.034;9.800;2023-05-14T00:13:26;6.47;;;4.57;;
20034;SDS011;10178;48.034;9.800;2023-05-14T00:15:52;5.05;;;4.30;;
20034;SDS011;10178;48.034;9.800;2023-05-14T00:18:17;5.15;;;4.65;;
20034;SDS011;10178;48.034;9.800;2023-05-14T00:20:43;4.63;;;4.22;;
20034;SDS011;10178;48.034;9.800;2023-05-14T00:23:08;5.28;;;4.65;;
20034;SDS011;10178;48.034;9.800;2023-05-14T00:25:35;5.55;;;4.22;;
20034;SDS011;10178;48.034;9.800;2023-05-14T00:28:00;4.28;;;3.90;;
20034;SDS011;10178;48.034;9.800;2023-05-14T00:30:27;5.85;;;4.70;;
20034;SDS011;10178;48.034;9.800;2023-05-14T00:32:52;4.72;;;4.30;;
20034;SDS011;10178;48.034;9.800;2023-05-14T00:35:18;4.40;;;4.00;;
20034;SDS011;10178;48.034;9.800;2023-05-14T00:37:45;4.60;;;4.20;;
20034;SDS011;10178;48.034;9.800;2023-05-14T00:40:11;4.40;;;4.00;;
20034;SDS011;10178;48.034;9.800;2023-05-14T00:42:38;4.45;;;4.00;;
20034;SDS011;10178;48.034;9.800;2023-05-14T00:45:04;4.82;;;4.43;;
20034;SDS011;10178;48.034;9.800;2023-05-14T00:47:30;4.18;;;3.88;;
20034;SDS011;10178;48.034;9.800;2023-05-14T00:49:58;5.10;;;4.57;;
20034;SDS011;10178;48.034;9.800;2023-05-14T00:52:24;4.15;;;3.72;;
20034;SDS011;10178;48.034;9.800;2023-05-14T00:54:50;5.03;;;4.00;;
20034;SDS011;10178;48.034;9.800;2023-05-14T00:57:16;4.70;;;4.30;;
20034;SDS011;10178;48.034;9.800;2023-05-14T00:59:43;4.70;;;4.30;;
20034;SDS011;10178;48.034;9.800;2023-05-14T01:02:09;5.60;;;4.38;;
20034;SDS011;10178;48.034;9.800;2023-05-14T01:04:35;7.95;;;4.38;;
20034;SDS011;10178;48.034;9.800;2023-05-14T01:09:40;4.25;;;3.85;;
20034;SDS011;10178;48.034;9.800;2023-05-14T01:14:57;3.95;;;3.65;;
20034;SDS011;10178;48.034;9.800;2023-05-14T01:17:53;4.05;;;3.75;;
20034;SDS011;10178;48.034;9.800;2023-05-14T01:20:25;4.40;;;4.00;;
20034;SDS011;10178;48.034;9.800;2023-05-14T01:22:51;4.93;;;3.70;;
20034;SDS011;10178;48.034;9.800;2023-05-14T01:25:16;4.88;;;4.28;;
20034;SDS011;10178;48.034;9.800;2023-05-14T01:27:54;5.05;;;4.15;;
20034;SDS011;10178;48.034;9.800;2023-05-14T01:30:31;4.53;;;3.88;;
20034;SDS011;10178;48.034;9.800;2023-05-14T01:33:02;5.05;;;3.92;;
20034;SDS011;10178;48.034;9.800;2023-05-14T01:35:31;4.70;;;4.13;;
20034;SDS011;10178;48.034;9.800;2023-05-14T01:37:58;4.30;;;4.00;;
20034;SDS011;10178;48.034;9.800;2023-05-14T01:40:25;4.28;;;3.88;;
20034;SDS011;10178;48.034;9.800;2023-05-14T01:42:52;3.70;;;3.45;;
20034;SDS011;10178;48.034;9.800;2023-05-14T01:45:24;4.50;;;4.10;;
20034;SDS011;10178;48.034;9.800;2023-05-14T01:47:50;4.70;;;4.30;;
20034;SDS011;10178;48.034;9.800;2023-05-14T01:50:16;4.90;;;3.90;;
20034;SDS011;10178;48.034;9.800;2023-05-14T01:52:41;4.35;;;3.95;;
20034;SDS011;10178;48.034;9.800;2023-05-14T01:55:07;5.70;;;4.00;;
20034;SDS011;10178;48.034;9.800;2023-05-14T01:57:33;5.28;;;3.55;;
20034;SDS011;10178;48.034;9.800;2023-05-14T01:59:59;4.95;;;4.45;;
20034;SDS011;10178;48.034;9.800;2023-05-14T02:02:24;4.68;;;4.20;;
20034;SDS011;10178;48.034;9.800;2023-05-14T02:04:50;4.40;;;4.00;;
20034;SDS011;10178;48.034;9.800;2023-05-14T02:07:16;4.50;;;4.10;;
20034;SDS011;10178;48.034;9.800;2023-05-14T02:09:42;4.50;;;4.10;;
20034;SDS011;10178;48.034;9.800;2023-05-14T02:12:07;4.80;;;4.10;;
20034;SDS011;10178;48.034;9.800;2023-05-14T02:14:33;4.75;;;4.35;;
20034;SDS011;10178;48.034;9.800;2023-05-14T02:16:59;5.70;;;4.35;;
20034;SDS011;10178;48.034;9.800;2023-05-14T02:19:25;5.00;;;4.60;;
20034;SDS011;10178;48.034;9.800;2023-05-14T02:21:50;4.63;;;4.20;;
20034;SDS011;10178;48.034;9.800;2023-05-14T02:24:16;4.50;;;4.10;;
20034;SDS011;10178;48.034;9.800;2023-05-14T02:26:42;4.40;;;3.92;;
20034;SDS011;10178;48.034;9.800;2023-05-14T02:29:07;7.20;;;4.82;;
20034;SDS011;10178;48.034;9.800;2023-05-14T02:31:33;5.07;;;4.57;;
20034;SDS011;10178;48.034;9.800;2023-05-14T02:34:02;5.85;;;5.25;;
20034;SDS011;10178;48.034;9.800;2023-05-14T02:36:30;4.80;;;4.38;;
20034;SDS011;10178;48.034;9.800;2023-05-14T02:38:57;4.95;;;4.40;;
20034;SDS011;10178;48.034;9.800;2023-05-14T02:41:23;4.63;;;4.22;;
20034;SDS011;10178;48.034;9.800;2023-05-14T02:43:49;6.20;;;4.60;;
20034;SDS011;10178;48.034;9.800;2023-05-14T02:46:14;4.88;;;4.47;;
20034;SDS011;10178;48.034;9.800;2023-05-14T02:48:40;5.32;;;4.82;;
20034;SDS011;10178;48.034;9.800;2023-05-14T02:51:06;5.30;;;4.80;;
20034;SDS011;10178;48.034;9.800;2023-05-14T02:53:32;5.43;;;4.57;;
20034;SDS011;10178;48.034;9.800;2023-05-14T02:55:57;5.22;;;4.72;;
20034;SDS011;10178;48.034;9.800;2023-05-14T02:58:23;5.05;;;4.55;;
20034;SDS011;10178;48.034;9.800;2023-05-14T03:00:48;6.28;;;5.20;;
20034;SDS011;10178;48.034;9.800;2023-05-14T03:03:14;6.45;;;5.15;;
20034;SDS011;10178;48.034;9.800;2023-05-14T03:05:40;5.15;;;4.72;;
20034;SDS011;10178;48.034;9.800;2023-05-14T03:08:06;5.10;;;4.60;;
20034;SDS011;10178;48.034;9.800;2023-05-14T03:10:32;5.15;;;4.65;;
20034;SDS011;10178;48.034;9.800;2023-05-14T03:12:57;4.70;;;4.30;;
20034;SDS011;10178;48.034;9.800;2023-05-14T03:15:23;5.57;;;4.18;;
20034;SDS011;10178;48.034;9.800;2023-05-14T03:17:49;5.38;;;4.88;;
20034;SDS011;10178;48.034;9.800;2023-05-14T03:20:14;5.68;;;4.15;;
20034;SDS011;10178;48.034;9.800;2023-05-14T03:22:40;5.13;;;4.63;;
20034;SDS011;10178;48.034;9.800;2023-05-14T03:25:06;5.10;;;4.70;;
20034;SDS011;10178;48.034;9.800;2023-05-14T03:27:32;4.68;;;4.18;;
20034;SDS011;10178;48.034;9.800;2023-05-14T03:29:58;5.20;;;4.70;;
20034;SDS011;10178;48.034;9.800;2023-05-14T03:32:24;5.93;;;5.00;;
20034;SDS011;10178;48.034;9.800;2023-05-14T03:34:49;4.72;;;4.32;;
20034;SDS011;10178;48.034;9.800;2023-05-14T03:37:15;5.22;;;4.72;;
20034;SDS011;10178;48.034;9.800;2023-05-14T03:39:41;4.20;;;3.80;;
20034;SDS011;10178;48.034;9.800;2023-05-14T03:42:06;5.78;;;5.20;;
20034;SDS011;10178;48.034;9.800;2023-05-14T03:44:32;5.10;;;4.60;;
20034;SDS011;10178;48.034;9.800;2023-05-14T03:46:57;4.82;;;4.32;;
20034;SDS011;10178;48.034;9.800;2023-05-14T03:49:23;5.35;;;4.85;;
20034;SDS011;10178;48.034;9.800;2023-05-14T03:51:49;6.97;;;4.85;;
20034;SDS011;10178;48.034;9.800;2023-05-14T03:54:15;4.75;;;4.35;;
20034;SDS011;10178;48.034;9.800;2023-05-14T03:56:40;6.90;;;4.60;;
20034;SDS011;10178;48.034;9.800;2023-05-14T03:59:06;5.50;;;5.00;;
20034;SDS011;10178;48.034;9.800;2023-05-14T04:01:31;7.15;;;5.15;;
20034;SDS011;10178;48.034;9.800;2023-05-14T04:03:57;5.40;;;4.65;;
20034;SDS011;10178;48.034;9.800;2023-05-14T04:06:22;5.70;;;5.10;;
20034;SDS011;10178;48.034;9.800;2023-05-14T04:08:48;5.40;;;4.80;;
20034;SDS011;10178;48.034;9.800;2023-05-14T04:11:14;5.72;;;4.97;;
20034;SDS011;10178;48.034;9.800;2023-05-14T04:13:39;5.22;;;4.72;;
20034;SDS011;10178;48.034;9.800;2023-05-14T04:16:05;5.63;;;5.00;;
20034;SDS011;10178;48.034;9.800;2023-05-14T04:18:30;5.85;;;4.75;;
20034;SDS011;10178;48.034;9.800;2023-05-14T04:20:59;5.60;;;5.10;;
20034;SDS011;10178;48.034;9.800;2023-05-14T04:23:25;5.53;;;4.95;;
20034;SDS011;10178;48.034;9.800;2023-05-14T04:25:50;6.43;;;5.72;;
20034;SDS011;10178;48.034;9.800;2023-05-14T04:28:16;8.80;;;4.97;;
20034;SDS011;10178;48.034;9.800;2023-05-14T04:30:42;5.80;;;5.20;;
20034;SDS011;10178;48.034;9.800;2023-05-14T04:33:07;5.97;;;5.25;;
20034;SDS011;10178;48.034;9.800;2023-05-14T04:35:33;6.20;;;5.63;;
20034;SDS011;10178;48.034;9.800;2023-05-14T04:37:58;5.97;;;5.38;;
20034;SDS011;10178;48.034;9.800;2023-05-14T04:40:24;6.43;;;5.65;;
20034;SDS011;10178;48.034;9.800;2023-05-14T04:42:50;5.85;;;5.25;;
20034;SDS011;10178;48.034;9.800;2023-05-14T04:45:15;6.15;;;5.55;;
20034;SDS011;10178;48.034;9.800;2023-05-14T04:47:41;8.80;;;5.70;;
20034;SDS011;10178;48.034;9.800;2023-05-14T04:50:07;5.88;;;5.28;;
20034;SDS011;10178;48.034;9.800;2023-05-14T04:52:33;7.55;;;5.97;;
20034;SDS011;10178;48.034;9.800;2023-05-14T04:54:59;7.28;;;6.55;;
20034;SDS011;10178;48.034;9.800;2023-05-14T04:57:25;6.30;;;5.65;;
20034;SDS011;10178;48.034;9.800;2023-05-14T04:59:51;6.30;;;5.35;;
20034;SDS011;10178;48.034;9.800;2023-05-14T05:02:16;6.72;;;5.90;;
20034;SDS011;10178;48.034;9.800;2023-05-14T05:04:42;6.40;;;5.75;;
20034;SDS011;10178;48.034;9.800;2023-05-14T05:07:07;7.18;;;5.95;;
20034;SDS011;10178;48.034;9.800;2023-05-14T05:09:33;7.15;;;6.45;;
20034;SDS011;10178;48.034;9.800;2023-05-14T05:11:59;7.60;;;6.65;;
20034;SDS011;10178;48.034;9.800;2023-05-14T05:14:26;6.65;;;5.88;;
20034;SDS011;10178;48.034;9.800;2023-05-14T05:16:51;10.25;;;7.05;;
20034;SDS011;10178;48.034;9.800;2023-05-14T05:19:17;6.47;;;5.78;;
20034;SDS011;10178;48.034;9.800;2023-05-14T05:21:42;6.75;;;6.05;;
20034;SDS011;10178;48.034;9.800;2023-05-14T05:24:08;7.97;;;6.68;;
20034;SDS011;10178;48.034;9.800;2023-05-14T05:26:33;8.35;;;7.25;;
20034;SDS011;10178;48.034;9.800;2023-05-14T05:29:02;7.18;;;6.35;;
20034;SDS011;10178;48.034;9.800;2023-05-14T05:31:29;9.10;;;6.85;;
20034;SDS011;10178;48.034;9.800;2023-05-14T05:33:55;9.35;;;7.78;;
20034;SDS011;10178;48.034;9.800;2023-05-14T05:36:22;9.40;;;7.40;;
20034;SDS011;10178;48.034;9.800;2023-05-14T05:38:48;7.93;;;7.03;;
20034;SDS011;10178;48.034;9.800;2023-05-14T05:41:14;7.30;;;6.55;;
20034;SDS011;10178;48.034;9.800;2023-05-14T05:43:39;9.82;;;8.48;;
20034;SDS011;10178;48.034;9.800;2023-05-14T05:46:05;8.57;;;7.13;;
20034;SDS011;10178;48.034;9.800;2023-05-14T05:48:31;8.43;;;7.45;;
20034;SDS011;10178;48.034;9.800;2023-05-14T05:50:56;8.80;;;7.53;;
20034;SDS011;10178;48.034;9.800;2023-05-14T05:53:22;10.00;;;8.27;;
20034;SDS011;10178;48.034;9.800;2023-05-14T05:55:49;8.00;;;7.18;;
20034;SDS011;10178;48.034;9.800;2023-05-14T05:58:15;9.77;;;8.13;;
20034;SDS011;10178;48.034;9.800;2023-05-14T06:00:42;11.40;;;9.02;;
20034;SDS011;10178;48.034;9.800;2023-05-14T06:03:08;9.10;;;7.75;;
20034;SDS011;10178;48.034;9.800;2023-05-14T06:05:35;9.20;;;7.72;;
20034;SDS011;10178;48.034;9.800;2023-05-14T06:08:01;11.63;;;8.95;;
20034;SDS011;10178;48.034;9.800;2023-05-14T06:10:27;10.75;;;8.82;;
20034;SDS011;10178;48.034;9.800;2023-05-14T06:12:52;15.10;;;9.77;;
20034;SDS011;10178;48.034;9.800;2023-05-14T06:15:18;11.20;;;9.75;;
20034;SDS011;10178;48.034;9.800;2023-05-14T06:17:44;9.50;;;8.50;;
20034;SDS011;10178;48.034;9.800;2023-05-14T06:20:10;11.50;;;8.93;;
20034;SDS011;10178;48.034;9.800;2023-05-14T06:22:36;13.18;;;8.63;;
20034;SDS011;10178;48.034;9.800;2023-05-14T06:25:02;11.65;;;9.65;;
20034;SDS011;10178;48.034;9.800;2023-05-14T06:27:28;10.25;;;8.93;;
20034;SDS011;10178;48.034;9.800;2023-05-14T06:29:54;9.68;;;8.15;;
20034;SDS011;10178;48.034;9.800;2023-05-14T06:32:19;10.35;;;9.05;;
20034;SDS011;10178;48.034;9.800;2023-05-14T06:34:45;10.68;;;8.68;;
20034;SDS011;10178;48.034;9.800;2023-05-14T06:37:11;13.13;;;8.77;;
20034;SDS011;10178;48.034;9.800;2023-05-14T06:39:37;11.65;;;9.35;;
20034;SDS011;10178;48.034;9.800;2023-05-14T06:42:03;14.15;;;9.55;;
20034;SDS011;10178;48.034;9.800;2023-05-14T06:44:29;11.60;;;9.48;;
20034;SDS011;10178;48.034;9.800;2023-05-14T06:46:55;9.57;;;8.57;;
20034;SDS011;10178;48.034;9.800;2023-05-14T06:49:21;14.45;;;9.55;;
20034;SDS011;10178;48.034;9.800;2023-05-14T06:51:47;11.38;;;8.95;;
20034;SDS011;10178;48.034;9.800;2023-05-14T06:54:12;11.82;;;9.48;;
20034;SDS011;10178;48.034;9.800;2023-05-14T06:56:38;13.95;;;11.25;;
20034;SDS011;10178;48.034;9.800;2023-05-14T06:59:04;12.70;;;9.85;;
20034;SDS011;10178;48.034;9.800;2023-05-14T07:01:30;9.88;;;8.88;;
20034;SDS011;10178;48.034;9.800;2023-05-14T07:03:55;12.15;;;8.68;;
20034;SDS011;10178;48.034;9.800;2023-05-14T07:06:27;10.52;;;8.85;;
20034;SDS011;10178;48.034;9.800;2023-05-14T07:08:56;10.35;;;8.52;;
20034;SDS011;10178;48.034;9.800;2023-05-14T07:11:25;10.32;;;8.88;;
20034;SDS011;10178;48.034;9.800;2023-05-14T07:13:51;11.07;;;8.80;;
20034;SDS011;10178;48.034;9.800;2023-05-14T07:16:16;9.45;;;8.32;;
20034;SDS011;10178;48.034;9.800;2023-05-14T07:18:43;9.95;;;8.02;;
20034;SDS011;10178;48.034;9.800;2023-05-14T07:21:09;12.23;;;9.52;;
20034;SDS011;10178;48.034;9.800;2023-05-14T07:23:35;11.43;;;9.30;;
20034;SDS011;10178;48.034;9.800;2023-05-14T07:26:03;9.95;;;8.90;;
20034;SDS011;10178;48.034;9.800;2023-05-14T07:28:29;11.43;;;9.55;;
20034;SDS011;10178;48.034;9.800;2023-05-14T07:30:55;12.32;;;9.43;;
20034;SDS011;10178;48.034;9.800;2023-05-14T07:33:21;9.80;;;8.80;;
20034;SDS011;10178;48.034;9.800;2023-05-14T07:35:47;14.18;;;9.13;;
20034;SDS011;10178;48.034;9.800;2023-05-14T07:38:12;10.05;;;8.98;;
20034;SDS011;10178;48.034;9.800;2023-05-14T07:40:38;11.02;;;9.27;;
20034;SDS011;10178;48.034;9.800;2023-05-14T07:43:04;10.35;;;8.13;;
20034;SDS011;10178;48.034;9.800;2023-05-14T07:45:30;11.32;;;9.15;;
20034;SDS011;10178;48.034;9.800;2023-05-14T07:47:55;14.02;;;9.52;;
20034;SDS011;10178;48.034;9.800;2023-05-14T07:50:21;14.88;;;10.75;;
20034;SDS011;10178;48.034;9.800;2023-05-14T07:52:47;12.63;;;10.05;;
20034;SDS011;10178;48.034;9.800;2023-05-14T07:55:13;12.68;;;10.63;;
20034;SDS011;10178;48.034;9.800;2023-05-14T07:57:38;12.02;;;10.32;;
20034;SDS011;10178;48.034;9.800;2023-05-14T08:00:04;13.65;;;9.55;;
20034;SDS011;10178;48.034;9.800;2023-05-14T08:02:33;11.98;;;10.48;;
20034;SDS011;10178;48.034;9.800;2023-05-14T08:04:59;12.27;;;10.10;;
20034;SDS011;10178;48.034;9.800;2023-05-14T08:07:25;10.90;;;9.05;;
20034;SDS011;10178;48.034;9.800;2023-05-14T08:09:53;11.88;;;9.52;;
20034;SDS011;10178;48.034;9.800;2023-05-14T08:12:19;12.75;;;9.70;;
20034;SDS011;10178;48.034;9.800;2023-05-14T08:14:45;12.90;;;10.32;;
20034;SDS011;10178;48.034;9.800;2023-05-14T08:17:11;10.98;;;8.65;;
20034;SDS011;10178;48.034;9.800;2023-05-14T08:19:37;11.85;;;8.77;;
20034;SDS011;10178;48.034;9.800;2023-05-14T08:22:02;10.90;;;9.60;;
20034;SDS011;10178;48.034;9.800;2023-05-14T08:24:28;11.57;;;8.98;;
20034;SDS011;10178;48.034;9.800;2023-05-14T08:26:54;11.55;;;9.02;;
20034;SDS011;10178;48.034;9.800;2023-05-14T08:29:20;10.80;;;9.32;;
20034;SDS011;10178;48.034;9.800;2023-05-14T08:31:45;11.23;;;9.20;;
20034;SDS011;10178;48.034;9.800;2023-05-14T08:34:12;11.05;;;9.30;;
20034;SDS011;10178;48.034;9.800;2023-05-14T08:36:38;12.52;;;10.00;;
20034;SDS011;10178;48.034;9.800;2023-05-14T08:39:03;10.52;;;8.70;;
20034;SDS011;10178;48.034;9.800;2023-05-14T08:41:31;10.57;;;9.00;;
20034;SDS011;10178;48.034;9.800;2023-05-14T08:44:07;16.65;;;11.90;;
20034;SDS011;10178;48.034;9.800;2023-05-14T08:46:37;17.38;;;11.27;;
20034;SDS011;10178;48.034;9.800;2023-05-14T08:51:50;13.52;;;10.90;;
20034;SDS011;10178;48.034;9.800;2023-05-14T08:54:16;15.52;;;11.40;;
20034;SDS011;10178;48.034;9.800;2023-05-14T08:56:45;13.50;;;11.80;;
20034;SDS011;10178;48.034;9.800;2023-05-14T08:59:11;15.68;;;11.13;;
20034;SDS011;10178;48.034;9.800;2023-05-14T09:01:37;13.77;;;11.15;;
20034;SDS011;10178;48.034;9.800;2023-05-14T09:04:03;14.15;;;11.25;;
20034;SDS011;10178;48.034;9.800;2023-05-14T09:06:33;13.43;;;11.13;;
20034;SDS011;10178;48.034;9.800;2023-05-14T09:09:03;14.60;;;10.93;;
20034;SDS011;10178;48.034;9.800;2023-05-14T09:11:29;14.80;;;10.93;;
20034;SDS011;10178;48.034;9.800;2023-05-14T09:13:54;13.70;;;11.05;;
20034;SDS011;10178;48.034;9.800;2023-05-14T09:16:20;13.73;;;11.13;;
20034;SDS011;10178;48.034;9.800;2023-05-14T09:18:47;14.45;;;10.65;;
20034;SDS011;10178;48.034;9.800;2023-05-14T09:21:13;13.07;;;11.38;;
20034;SDS011;10178;48.034;9.800;2023-05-14T09:23:43;11.80;;;10.10;;
20034;SDS011;10178;48.034;9.800;2023-05-14T09:26:09;13.23;;;11.20;;
20034;SDS011;10178;48.034;9.800;2023-05-14T09:28:38;11.52;;;10.05;;
20034;SDS011;10178;48.034;9.800;2023-05-14T09:31:05;14.27;;;10.38;;
20034;SDS011;10178;48.034;9.800;2023-05-14T09:33:33;12.55;;;9.88;;
20034;SDS011;10178;48.034;9.800;2023-05-14T09:35:58;11.77;;;10.10;;
20034;SDS011;10178;48.034;9.800;2023-05-14T09:38:28;13.27;;;9.93;;
20034;SDS011;10178;48.034;9.800;2023-05-14T09:40:55;11.30;;;9.48;;
20034;SDS011;10178;48.034;9.800;2023-05-14T09:43:21;10.52;;;9.02;;
20034;SDS011;10178;48.034;9.800;2023-05-14T09:45:47;10.40;;;9.23;;
20034;SDS011;10178;48.034;9.800;2023-05-14T09:48:12;11.13;;;9.30;;
20034;SDS011;10178;48.034;9.800;2023-05-14T09:50:43;11.13;;;9.55;;
20034;SDS011;10178;48.034;9.800;2023-05-14T09:53:09;10.23;;;9.10;;
20034;SDS011;10178;48.034;9.800;2023-05-14T09:55:36;13.98;;;8.95;;
20034;SDS011;10178;48.034;9.800;2023-05-14T09:58:02;10.02;;;8.60;;
20034;SDS011;10178;48.034;9.800;2023-05-14T10:00:31;11.02;;;8.55;;
20034;SDS011;10178;48.034;9.800;2023-05-14T10:02:58;10.63;;;8.93;;
20034;SDS011;10178;48.034;9.800;2023-05-14T10:05:35;12.27;;;9.20;;
20034;SDS011;10178;48.034;9.800;2023-05-14T10:08:18;13.43;;;8.98;;
20034;SDS011;10178;48.034;9.800;2023-05-14T10:11:14;10.40;;;8.85;;
20034;SDS011;10178;48.034;9.800;2023-05-14T10:13:49;12.38;;;9.15;;
20034;SDS011;10178;48.034;9.800;2023-05-14T10:16:26;10.18;;;8.25;;
20034;SDS011;10178;48.034;9.800;2023-05-14T10:18:55;9.52;;;8.30;;
20034;SDS011;10178;48.034;9.800;2023-05-14T10:21:29;9.75;;;8.75;;
20034;SDS011;10178;48.034;9.800;2023-05-14T10:23:58;10.43;;;8.93;;
20034;SDS011;10178;48.034;9.800;2023-05-14T10:26:24;9.88;;;8.18;;
20034;SDS011;10178;48.034;9.800;2023-05-14T10:28:50;10.45;;;8.93;;
20034;SDS011;10178;48.034;9.800;2023-05-14T10:31:16;9.98;;;8.50;;
20034;SDS011;10178;48.034;9.800;2023-05-14T10:33:45;10.57;;;8.43;;
20034;SDS011;10178;48.034;9.800;2023-05-14T10:36:13;9.45;;;8.30;;
20034;SDS011;10178;48.034;9.800;2023-05-14T10:38:39;10.43;;;8.13;;
20034;SDS011;10178;48.034;9.800;2023-05-14T10:41:12;9.98;;;8.35;;
20034;SDS011;10178;48.034;9.800;2023-05-14T10:43:42;10.40;;;8.80;;
20034;SDS011;10178;48.034;9.800;2023-05-14T10:46:09;11.90;;;8.60;;
20034;SDS011;10178;48.034;9.800;2023-05-14T10:48:38;11.05;;;8.32;;
20034;SDS011;10178;48.034;9.800;2023-05-14T10:51:10;9.20;;;7.57;;
20034;SDS011;10178;48.034;9.800;2023-05-14T10:53:37;9.27;;;8.27;;
20034;SDS011;10178;48.034;9.800;2023-05-14T10:58:31;10.10;;;8.35;;
20034;SDS011;10178;48.034;9.800;2023-05-14T11:01:00;8.55;;;7.47;;
20034;SDS011;10178;48.034;9.800;2023-05-14T11:03:29;11.35;;;7.85;;
20034;SDS011;10178;48.034;9.800;2023-05-14T11:05:56;10.68;;;8.88;;
20034;SDS011;10178;48.034;9.800;2023-05-14T11:08:21;9.45;;;8.13;;
20034;SDS011;10178;48.034;9.800;2023-05-14T11:10:50;9.13;;;7.90;;
20034;SDS011;10178;48.034;9.800;2023-05-14T11:13:16;9.75;;;7.75;;
20034;SDS011;10178;48.034;9.800;2023-05-14T11:15:43;10.55;;;8.38;;
20034;SDS011;10178;48.034;9.800;2023-05-14T11:18:12;10.27;;;7.68;;
20034;SDS011;10178;48.034;9.800;2023-05-14T11:20:38;11.40;;;7.90;;
20034;SDS011;10178;48.034;9.800;2023-05-14T11:23:04;10.23;;;8.60;;
20034;SDS011;10178;48.034;9.800;2023-05-14T11:25:30;8.82;;;7.63;;
20034;SDS011;10178;48.034;9.800;2023-05-14T11:27:55;9.02;;;8.13;;
20034;SDS011;10178;48.034;9.800;2023-05-14T11:30:24;8.23;;;7.30;;
20034;SDS011;10178;48.034;9.800;2023-05-14T11:32:50;8.95;;;7.45;;
20034;SDS011;10178;48.034;9.800;2023-05-14T11:35:16;9.05;;;7.30;;
20034;SDS011;10178;48.034;9.800;2023-05-14T11:37:42;9.90;;;8.00;;
20034;SDS011;10178;48.034;9.800;2023-05-14T11:40:14;11.50;;;8.60;;
20034;SDS011;10178;48.034;9.800;2023-05-14T11:42:40;9.52;;;8.43;;
20034;SDS011;10178;48.034;9.800;2023-05-14T11:45:06;8.85;;;7.95;;
20034;SDS011;10178;48.034;9.800;2023-05-14T11:47:36;8.50;;;7.60;;
20034;SDS011;10178;48.034;9.800;2023-05-14T11:50:01;9.18;;;8.20;;
20034;SDS011;10178;48.034;9.800;2023-05-14T11:52:27;9.52;;;7.45;;
20034;SDS011;10178;48.034;9.800;2023-05-14T11:54:53;9.35;;;7.55;;
20034;SDS011;10178;48.034;9.800;2023-05-14T11:57:19;8.07;;;7.18;;
20034;SDS011;10178;48.034;9.800;2023-05-14T11:59:46;8.00;;;6.95;;
20034;SDS011;10178;48.034;9.800;2023-05-14T12:02:14;7.90;;;7.03;;
20034;SDS011;10178;48.034;9.800;2023-05-14T12:04:42;6.85;;;5.90;;
20034;SDS011;10178;48.034;9.800;2023-05-14T12:07:12;7.20;;;6.10;;
20034;SDS011;10178;48.034;9.800;2023-05-14T12:09:40;6.32;;;5.72;;
20034;SDS011;10178;48.034;9.800;2023-05-14T12:12:12;8.40;;;6.85;;
20034;SDS011;10178;48.034;9.800;2023-05-14T12:14:39;6.50;;;5.88;;
20034;SDS011;10178;48.034;9.800;2023-05-14T12:19:39;10.73;;;6.40;;
20034;SDS011;10178;48.034;9.800;2023-05-14T12:22:06;8.30;;;5.25;;
20034;SDS011;10178;48.034;9.800;2023-05-14T12:24:33;7.30;;;5.75;;
20034;SDS011;10178;48.034;9.800;2023-05-14T12:26:59;8.02;;;6.45;;
20034;SDS011;10178;48.034;9.800;2023-05-14T12:29:26;5.65;;;5.13;;
20034;SDS011;10178;48.034;9.800;2023-05-14T12:31:51;8.20;;;6.95;;
20034;SDS011;10178;48.034;9.800;2023-05-14T12:34:17;7.55;;;6.78;;
20034;SDS011;10178;48.034;9.800;2023-05-14T12:36:43;4.82;;;4.43;;
20034;SDS011;10178;48.034;9.800;2023-05-14T12:39:09;8.07;;;5.95;;
20034;SDS011;10178;48.034;9.800;2023-05-14T12:41:36;7.97;;;5.18;;
20034;SDS011;10178;48.034;9.800;2023-05-14T12:44:02;6.80;;;6.10;;
20034;SDS011;10178;48.034;9.800;2023-05-14T12:46:28;5.43;;;4.85;;
20034;SDS011;10178;48.034;9.800;2023-05-14T12:48:54;5.53;;;5.03;;
20034;SDS011;10178;48.034;9.800;2023-05-14T12:51:20;7.72;;;5.85;;
20034;SDS011;10178;48.034;9.800;2023-05-14T12:53:47;6.07;;;5.43;;
20034;SDS011;10178;48.034;9.800;2023-05-14T12:56:13;8.00;;;5.78;;
20034;SDS011;10178;48.034;9.800;2023-05-14T12:58:38;4.82;;;4.00;;
20034;SDS011;10178;48.034;9.800;2023-05-14T13:01:04;5.50;;;4.97;;
20034;SDS011;10178;48.034;9.800;2023-05-14T13:03:30;5.53;;;4.20;;
20034;SDS011;10178;48.034;9.800;2023-05-14T13:05:56;4.20;;;3.75;;
20034;SDS011;10178;48.034;9.800;2023-05-14T13:08:22;5.70;;;4.75;;
20034;SDS011;10178;48.034;9.800;2023-05-14T13:10:53;4.55;;;4.15;;
20034;SDS011;10178;48.034;9.800;2023-05-14T13:13:19;5.68;;;4.25;;
20034;SDS011;10178;48.034;9.800;2023-05-14T13:15:45;7.80;;;4.82;;
20034;SDS011;10178;48.034;9.800;2023-05-14T13:18:12;4.20;;;3.75;;
20034;SDS011;10178;48.034;9.800;2023-05-14T13:20:38;5.10;;;4.15;;
20034;SDS011;10178;48.034;9.800;2023-05-14T13:23:03;6.22;;;3.63;;
20034;SDS011;10178;48.034;9.800;2023-05-14T13:25:29;3.60;;;3.30;;
20034;SDS011;10178;48.034;9.800;2023-05-14T13:27:54;4.00;;;3.65;;
20034;SDS011;10178;48.034;9.800;2023-05-14T13:30:20;3.33;;;3.03;;
20034;SDS011;10178;48.034;9.800;2023-05-14T13:32:46;4.93;;;3.53;;
20034;SDS011;10178;48.034;9.800;2023-05-14T13:35:11;4.22;;;3.90;;
20034;SDS011;10178;48.034;9.800;2023-05-14T13:37:37;3.40;;;3.10;;
20034;SDS011;10178;48.034;9.800;2023-05-14T13:40:03;3.45;;;3.00;;
20034;SDS011;10178;48.034;9.800;2023-05-14T13:42:33;4.00;;;3.60;;
20034;SDS011;10178;48.034;9.800;2023-05-14T13:44:59;3.58;;;3.28;;
20034;SDS011;10178;48.034;9.800;2023-05-14T13:47:25;3.70;;;3.05;;
20034;SDS011;10178;48.034;9.800;2023-05-14T13:49:51;4.35;;;4.00;;
20034;SDS011;10178;48.034;9.800;2023-05-14T13:52:17;3.50;;;3.20;;
20034;SDS011;10178;48.034;9.800;2023-05-14T13:54:43;3.88;;;3.47;;
20034;SDS011;10178;48.034;9.800;2023-05-14T13:57:08;3.75;;;3.45;;
20034;SDS011;10178;48.034;9.800;2023-05-14T13:59:34;4.55;;;4.00;;
20034;SDS011;10178;48.034;9.800;2023-05-14T14:02:00;3.50;;;3.20;;
20034;SDS011;10178;48.034;9.800;2023-05-14T14:04:26;3.78;;;3.47;;
20034;SDS011;10178;48.034;9.800;2023-05-14T14:06:54;3.83;;;3.53;;
20034;SDS011;10178;48.034;9.800;2023-05-14T14:09:20;4.00;;;3.60;;
20034;SDS011;10178;48.034;9.800;2023-05-14T14:11:46;4.65;;;3.85;;
20034;SDS011;10178;48.034;9.800;2023-05-14T14:14:12;3.65;;;3.35;;
20034;SDS011;10178;48.034;9.800;2023-05-14T14:16:38;4.07;;;3.78;;
20034;SDS011;10178;48.034;9.800;2023-05-14T14:19:03;3.42;;;3.13;;
20034;SDS011;10178;48.034;9.800;2023-05-14T14:21:29;4.03;;;3.60;;
20034;SDS011;10178;48.034;9.800;2023-05-14T14:23:55;4.68;;;3.83;;
20034;SDS011;10178;48.034;9.800;2023-05-14T14:26:21;5.50;;;3.65;;
20034;SDS011;10178;48.034;9.800;2023-05-14T14:28:47;3.85;;;3.55;;
20034;SDS011;10178;48.034;9.800;2023-05-14T14:31:12;4.82;;;4.28;;
20034;SDS011;10178;48.034;9.800;2023-05-14T14:33:38;4.68;;;4.28;;
20034;SDS011;10178;48.034;9.800;2023-05-14T14:36:04;4.32;;;3.92;;
20034;SDS011;10178;48.034;9.800;2023-05-14T14:38:30;4.53;;;4.10;;
20034;SDS011;10178;48.034;9.800;2023-05-14T14:40:56;4.28;;;3.88;;
20034;SDS011;10178;48.034;9.800;2023-05-14T14:43:22;4.35;;;3.95;;
20034;SDS011;10178;48.034;9.800;2023-05-14T14:45:48;4.82;;;4.38;;
20034;SDS011;10178;48.034;9.800;2023-05-14T14:48:21;3.42;;;3.13;;
20034;SDS011;10178;48.034;9.800;2023-05-14T14:50:48;3.60;;;3.30;;
20034;SDS011;10178;48.034;9.800;2023-05-14T14:53:14;5.80;;;3.65;;